Time;durP1;ratioP1;P1;durP2;ratioP2;P2;SDS_P1;SDS_P2;PMS_P1;PMS_P2;Temp;Humidity;BMP_temperature;BMP_pressure;BME280_temperature;BME280_humidity;BME280_pressure;Samples;Min_cycle;Max_cycle;Signal;HPM_P1;HPM_P2
2021/04/10 00:00:33;;;;;;;0.60;0.60;;;;;;;;;;5067829;28;20191;-59
2021/04/10 00:02:59;;;;;;;0.00;0.00;;;;;;;;;;5056881;28;20194;-60
2021/04/10 00:05:26;;;;;;;2.13;0.93;;;;;;;;;;5052040;28;20240;-60
2021/04/10 00:07:53;;;;;;;1.47;0.83;;;;;;;;;;5053150;28;20239;-59
2021/04/10 00:10:20;;;;;;;2.47;1.77;;;;;;;;;;5059651;28;20248;-60
2021/04/10 00:12:47;;;;;;;0.63;0.40;;;;;;;;;;5058942;28;20191;-60
2021/04/10 00:15:15;;;;;;;0.70;0.70;;;;;;;;;;5056886;28;20232;-59
2021/04/10 00:17:42;;;;;;;1.90;1.80;;;;;;;;;;5057660;28;20186;-60
2021/04/10 00:20:12;;;;;;;4.87;1.80;;;;;;;;;;5056710;28;20197;-59
2021/04/10 00:22:39;;;;;;;0.73;0.73;;;;;;;;;;5054156;28;20178;-59
2021/04/10 00:25:17;;;;;;;1.50;0.67;;;;;;;;;;5057318;28;20639;-60
2021/04/10 00:27:45;;;;;;;1.57;1.47;;;;;;;;;;5057150;28;20214;-59
2021/04/10 00:30:13;;;;;;;0.20;0.20;;;;;;;;;;5058015;28;20187;-59
2021/04/10 00:32:40;;;;;;;1.43;1.33;;;;;;;;;;5054310;28;20284;-59
2021/04/10 00:35:07;;;;;;;2.60;1.93;;;;;;;;;;5056820;28;20186;-59
2021/04/10 00:37:35;;;;;;;1.07;0.97;;;;;;;;;;5060284;28;20264;-59
2021/04/10 00:40:06;;;;;;;1.40;1.07;;;;;;;;;;5056664;28;20845;-58
2021/04/10 00:42:35;;;;;;;5.43;1.60;;;;;;;;;;5056374;28;20187;-58
2021/04/10 00:45:01;;;;;;;1.37;0.77;;;;;;;;;;5053841;28;21019;-58
2021/04/10 00:47:30;;;;;;;0.73;0.73;;;;;;;;;;5053707;28;20297;-59
2021/04/10 00:49:58;;;;;;;0.87;0.63;;;;;;;;;;5057439;28;20691;-59
2021/04/10 00:52:25;;;;;;;0.80;0.70;;;;;;;;;;5057782;28;20255;-60
2021/04/10 00:54:52;;;;;;;0.73;0.73;;;;;;;;;;5060180;28;20272;-59
2021/04/10 00:57:22;;;;;;;0.77;0.53;;;;;;;;;;5057129;28;20293;-58
2021/04/10 00:59:49;;;;;;;8.43;2.20;;;;;;;;;;5057545;28;20277;-59
2021/04/10 01:02:16;;;;;;;0.00;0.00;;;;;;;;;;5056457;28;20218;-59
2021/04/10 01:04:43;;;;;;;6.00;1.60;;;;;;;;;;5055529;28;20194;-61
2021/04/10 01:07:10;;;;;;;2.40;1.50;;;;;;;;;;5052109;28;20191;-60
2021/04/10 01:09:37;;;;;;;0.77;0.33;;;;;;;;;;5055249;28;20178;-59
2021/04/10 01:12:08;;;;;;;2.83;1.00;;;;;;;;;;5058605;28;21238;-59
2021/04/10 01:14:37;;;;;;;2.17;1.40;;;;;;;;;;5057092;28;20956;-60
2021/04/10 01:17:13;;;;;;;3.00;1.47;;;;;;;;;;5056489;28;20179;-59
2021/04/10 01:19:58;;;;;;;1.70;0.60;;;;;;;;;;5056551;28;20550;-59
2021/04/10 01:22:36;;;;;;;1.33;1.23;;;;;;;;;;5056063;28;20193;-60
2021/04/10 01:25:04;;;;;;;1.53;1.07;;;;;;;;;;5050853;28;20194;-60
2021/04/10 01:27:38;;;;;;;2.60;1.97;;;;;;;;;;5057129;28;20304;-59
2021/04/10 01:30:06;;;;;;;4.83;1.00;;;;;;;;;;5056070;28;20191;-59
2021/04/10 01:32:35;;;;;;;1.67;1.57;;;;;;;;;;5059207;28;20308;-59
2021/04/10 01:35:04;;;;;;;3.80;1.50;;;;;;;;;;5052959;28;20983;-59
2021/04/10 01:37:36;;;;;;;3.13;2.33;;;;;;;;;;5053280;28;20187;-60
2021/04/10 01:40:03;;;;;;;0.10;0.10;;;;;;;;;;5054579;28;20630;-59
2021/04/10 01:42:32;;;;;;;2.27;1.67;;;;;;;;;;5054210;28;20249;-60
2021/04/10 01:44:59;;;;;;;1.27;0.90;;;;;;;;;;5048329;28;20551;-59
2021/04/10 01:47:26;;;;;;;0.23;0.23;;;;;;;;;;5055047;28;20929;-59
2021/04/10 01:49:54;;;;;;;2.37;1.87;;;;;;;;;;5056432;28;20184;-59
2021/04/10 01:52:22;;;;;;;0.73;0.63;;;;;;;;;;5057029;28;20274;-59
2021/04/10 01:54:49;;;;;;;3.10;1.63;;;;;;;;;;5057454;28;20191;-59
2021/04/10 01:57:19;;;;;;;3.10;0.90;;;;;;;;;;5058237;28;20284;-59
2021/04/10 01:59:45;;;;;;;3.13;1.93;;;;;;;;;;5057064;28;20186;-58
2021/04/10 02:02:13;;;;;;;1.43;0.67;;;;;;;;;;5052559;28;20195;-58
2021/04/10 02:04:43;;;;;;;0.10;0.10;;;;;;;;;;5055682;28;20270;-59
2021/04/10 02:07:10;;;;;;;0.30;0.30;;;;;;;;;;5057529;28;20190;-59
2021/04/10 02:09:39;;;;;;;1.40;1.20;;;;;;;;;;5057629;28;20286;-58
2021/04/10 02:12:06;;;;;;;1.83;1.73;;;;;;;;;;5057129;28;20191;-59
2021/04/10 02:14:33;;;;;;;1.33;1.23;;;;;;;;;;5056511;28;20194;-59
2021/04/10 02:17:01;;;;;;;4.37;1.57;;;;;;;;;;5060934;28;20969;-58
2021/04/10 02:19:38;;;;;;;0.00;0.00;;;;;;;;;;5059501;28;20224;-59
2021/04/10 02:22:04;;;;;;;0.60;0.60;;;;;;;;;;5061252;28;20182;-59
2021/04/10 02:24:31;;;;;;;5.70;2.63;;;;;;;;;;5047489;28;20264;-59
2021/04/10 02:26:58;;;;;;;2.07;1.80;;;;;;;;;;5068001;28;20228;-59
2021/04/10 02:29:24;;;;;;;1.50;1.10;;;;;;;;;;5060194;28;20206;-58
2021/04/10 02:32:11;;;;;;;2.03;1.87;;;;;;;;;;5049594;28;20186;-59
2021/04/10 02:34:43;;;;;;;3.03;2.70;;;;;;;;;;5048412;28;20261;-59
2021/04/10 02:37:09;;;;;;;2.77;0.97;;;;;;;;;;5059157;28;20183;-59
2021/04/10 02:39:36;;;;;;;0.13;0.13;;;;;;;;;;5054288;28;20336;-59
2021/04/10 02:42:03;;;;;;;0.57;0.57;;;;;;;;;;5060986;28;20546;-59
2021/04/10 02:44:45;;;;;;;0.43;0.43;;;;;;;;;;5059116;28;20225;-59
2021/04/10 02:47:13;;;;;;;2.30;0.97;;;;;;;;;;5057387;28;20221;-59
2021/04/10 02:49:41;;;;;;;1.63;1.00;;;;;;;;;;5059222;28;20188;-59
2021/04/10 02:52:09;;;;;;;0.60;0.60;;;;;;;;;;5059989;28;20228;-59
2021/04/10 02:54:37;;;;;;;1.20;0.80;;;;;;;;;;5069193;28;20201;-59
2021/04/10 02:57:22;;;;;;;3.03;1.27;;;;;;;;;;5060040;28;20190;-59
2021/04/10 02:59:50;;;;;;;0.87;0.83;;;;;;;;;;5057786;28;20190;-59
2021/04/10 03:02:17;;;;;;;0.57;0.57;;;;;;;;;;5059760;28;20218;-59
2021/04/10 03:04:47;;;;;;;0.50;0.40;;;;;;;;;;5060027;28;20189;-59
2021/04/10 03:07:15;;;;;;;3.97;1.53;;;;;;;;;;5060033;28;20865;-60
2021/04/10 03:09:43;;;;;;;1.03;0.60;;;;;;;;;;5059050;28;20186;-60
2021/04/10 03:12:13;;;;;;;0.10;0.10;;;;;;;;;;5056560;28;20922;-60
2021/04/10 03:14:41;;;;;;;0.73;0.57;;;;;;;;;;5063748;28;20712;-60
2021/04/10 03:17:09;;;;;;;3.60;1.23;;;;;;;;;;5063376;28;20190;-60
2021/04/10 03:19:37;;;;;;;3.80;1.67;;;;;;;;;;5063105;28;20243;-59
2021/04/10 03:22:04;;;;;;;0.43;0.43;;;;;;;;;;5063261;28;20434;-60
2021/04/10 03:24:32;;;;;;;0.30;0.30;;;;;;;;;;5060674;28;20723;-59
2021/04/10 03:26:59;;;;;;;3.43;1.60;;;;;;;;;;5061026;28;20271;-59
2021/04/10 03:29:27;;;;;;;0.00;0.00;;;;;;;;;;5064363;28;20205;-60
2021/04/10 03:31:54;;;;;;;3.40;1.50;;;;;;;;;;5065088;28;20262;-60
2021/04/10 03:34:21;;;;;;;3.13;1.40;;;;;;;;;;5057501;28;20178;-59
2021/04/10 03:36:48;;;;;;;0.00;0.00;;;;;;;;;;5059703;28;20216;-60
2021/04/10 03:39:15;;;;;;;1.00;1.00;;;;;;;;;;5058772;28;20182;-59
2021/04/10 03:41:42;;;;;;;1.77;1.23;;;;;;;;;;5060530;28;20521;-59
2021/04/10 03:44:09;;;;;;;0.67;0.67;;;;;;;;;;5056896;28;20218;-60
2021/04/10 03:46:36;;;;;;;3.63;2.23;;;;;;;;;;5058497;28;20259;-60
2021/04/10 03:49:04;;;;;;;8.50;2.93;;;;;;;;;;5056635;28;20202;-60
2021/04/10 03:51:31;;;;;;;0.03;0.03;;;;;;;;;;5057094;28;20538;-59
2021/04/10 03:53:58;;;;;;;1.80;1.30;;;;;;;;;;5055243;28;20277;-60
2021/04/10 03:56:25;;;;;;;0.50;0.50;;;;;;;;;;5060902;28;20201;-59
2021/04/10 03:58:52;;;;;;;1.60;1.23;;;;;;;;;;5059069;28;20219;-59
2021/04/10 04:01:19;;;;;;;3.23;1.07;;;;;;;;;;5058486;28;20653;-60
2021/04/10 04:03:46;;;;;;;0.67;0.67;;;;;;;;;;5058906;28;20282;-60
2021/04/10 04:06:12;;;;;;;1.60;1.27;;;;;;;;;;5064653;28;20266;-60
2021/04/10 04:08:39;;;;;;;1.80;0.77;;;;;;;;;;5058850;28;20688;-60
2021/04/10 04:11:06;;;;;;;4.27;1.47;;;;;;;;;;5060655;28;20180;-59
2021/04/10 04:13:33;;;;;;;2.17;1.73;;;;;;;;;;5060978;28;20928;-59
2021/04/10 04:16:00;;;;;;;1.77;1.10;;;;;;;;;;5060164;28;20186;-59
2021/04/10 04:18:27;;;;;;;0.67;0.47;;;;;;;;;;5059975;28;20913;-59
2021/04/10 04:20:53;;;;;;;0.40;0.40;;;;;;;;;;5056611;28;20190;-60
2021/04/10 04:23:20;;;;;;;2.73;1.47;;;;;;;;;;5059413;28;20247;-59
2021/04/10 04:25:47;;;;;;;0.63;0.63;;;;;;;;;;5059769;28;20179;-60
2021/04/10 04:28:14;;;;;;;1.00;0.93;;;;;;;;;;5062803;28;20201;-59
2021/04/10 04:30:41;;;;;;;0.73;0.73;;;;;;;;;;5060426;28;20175;-60
2021/04/10 04:33:08;;;;;;;2.53;0.70;;;;;;;;;;5060321;28;20210;-59
2021/04/10 04:35:34;;;;;;;4.07;1.90;;;;;;;;;;5059751;28;20175;-59
2021/04/10 04:38:01;;;;;;;0.00;0.00;;;;;;;;;;5059425;28;20194;-59
2021/04/10 04:40:28;;;;;;;2.17;1.60;;;;;;;;;;5057228;28;20209;-59
2021/04/10 04:42:55;;;;;;;1.33;1.10;;;;;;;;;;5060228;28;20475;-59
2021/04/10 04:45:22;;;;;;;0.00;0.00;;;;;;;;;;5057774;28;20171;-59
2021/04/10 04:47:49;;;;;;;0.67;0.57;;;;;;;;;;5059810;28;20729;-59
2021/04/10 04:50:15;;;;;;;3.30;0.87;;;;;;;;;;5059950;28;20864;-59
2021/04/10 04:52:42;;;;;;;0.33;0.33;;;;;;;;;;5059486;28;20273;-59
2021/04/10 04:55:11;;;;;;;0.20;0.20;;;;;;;;;;5059437;28;20182;-59
2021/04/10 04:57:38;;;;;;;6.43;1.90;;;;;;;;;;5059016;28;20700;-60
2021/04/10 05:00:05;;;;;;;0.60;0.60;;;;;;;;;;5059301;28;20196;-60
2021/04/10 05:02:32;;;;;;;0.30;0.27;;;;;;;;;;5058307;28;20181;-60
2021/04/10 05:04:59;;;;;;;2.00;1.27;;;;;;;;;;5060692;28;20599;-60
2021/04/10 05:07:25;;;;;;;1.93;1.80;;;;;;;;;;5059833;28;20185;-60
2021/04/10 05:09:52;;;;;;;1.13;0.73;;;;;;;;;;5059134;28;20757;-59
2021/04/10 05:12:19;;;;;;;2.57;1.07;;;;;;;;;;5063338;28;20250;-59
2021/04/10 05:14:45;;;;;;;0.63;0.63;;;;;;;;;;5059198;28;20278;-59
2021/04/10 05:17:14;;;;;;;2.93;1.13;;;;;;;;;;5058421;28;20217;-60
2021/04/10 05:19:41;;;;;;;2.20;1.80;;;;;;;;;;5057968;28;20179;-59
2021/04/10 05:22:07;;;;;;;0.60;0.53;;;;;;;;;;5057627;28;20187;-60
2021/04/10 05:24:34;;;;;;;2.53;1.60;;;;;;;;;;5059345;28;20171;-59
2021/04/10 05:27:01;;;;;;;1.80;0.77;;;;;;;;;;5058253;28;20256;-59
2021/04/10 05:29:28;;;;;;;1.20;0.60;;;;;;;;;;5057630;28;20203;-60
2021/04/10 05:31:55;;;;;;;0.53;0.53;;;;;;;;;;5058047;28;20909;-59
2021/04/10 05:34:22;;;;;;;1.23;0.57;;;;;;;;;;5057032;28;20186;-59
2021/04/10 05:36:49;;;;;;;5.67;2.23;;;;;;;;;;5058342;28;20247;-60
2021/04/10 05:39:16;;;;;;;7.80;1.33;;;;;;;;;;5058144;28;20181;-59
2021/04/10 05:41:42;;;;;;;3.80;1.80;;;;;;;;;;5055544;28;20200;-60
2021/04/10 05:44:09;;;;;;;0.67;0.37;;;;;;;;;;5053580;28;20178;-60
2021/04/10 05:46:36;;;;;;;2.10;1.90;;;;;;;;;;5057934;28;20558;-59
2021/04/10 05:49:03;;;;;;;7.87;3.10;;;;;;;;;;5059016;28;20206;-60
2021/04/10 05:51:30;;;;;;;1.60;1.50;;;;;;;;;;5061931;28;20189;-60
2021/04/10 05:53:56;;;;;;;0.00;0.00;;;;;;;;;;5058627;28;20201;-60
2021/04/10 05:56:23;;;;;;;0.53;0.53;;;;;;;;;;5060275;28;20179;-60
2021/04/10 05:58:50;;;;;;;0.87;0.83;;;;;;;;;;5062513;28;20190;-60
2021/04/10 06:01:17;;;;;;;2.43;0.93;;;;;;;;;;5060294;28;20206;-60
2021/04/10 06:03:43;;;;;;;0.40;0.30;;;;;;;;;;5056896;28;20213;-60
2021/04/10 06:06:11;;;;;;;1.70;0.87;;;;;;;;;;5062364;28;20213;-59
2021/04/10 06:08:38;;;;;;;0.77;0.77;;;;;;;;;;5061531;28;20501;-60
2021/04/10 06:11:04;;;;;;;1.93;1.30;;;;;;;;;;5063040;28;20171;-60
2021/04/10 06:13:31;;;;;;;0.00;0.00;;;;;;;;;;5062587;28;20178;-59
2021/04/10 06:15:57;;;;;;;0.23;0.23;;;;;;;;;;5062587;28;20182;-59
2021/04/10 06:18:24;;;;;;;3.53;1.63;;;;;;;;;;5062510;28;20183;-59
2021/04/10 06:20:50;;;;;;;1.17;0.30;;;;;;;;;;5058468;28;20183;-59
2021/04/10 06:23:17;;;;;;;0.37;0.37;;;;;;;;;;5062416;28;20182;-60
2021/04/10 06:25:43;;;;;;;1.80;1.70;;;;;;;;;;5061671;28;20178;-60
2021/04/10 06:28:10;;;;;;;0.20;0.20;;;;;;;;;;5062394;28;20203;-60
2021/04/10 06:30:36;;;;;;;2.53;0.93;;;;;;;;;;5062089;28;20181;-59
2021/04/10 06:33:03;;;;;;;0.00;0.00;;;;;;;;;;5062292;28;20207;-59
2021/04/10 06:35:30;;;;;;;0.80;0.73;;;;;;;;;;5058804;28;20174;-60
2021/04/10 06:37:56;;;;;;;0.10;0.10;;;;;;;;;;5060288;28;20181;-60
2021/04/10 06:40:23;;;;;;;0.00;0.00;;;;;;;;;;5063792;28;20198;-60
2021/04/10 06:42:49;;;;;;;0.50;0.50;;;;;;;;;;5061530;28;20175;-60
2021/04/10 06:45:16;;;;;;;1.00;0.63;;;;;;;;;;5061558;28;20201;-59
2021/04/10 06:47:44;;;;;;;4.37;1.93;;;;;;;;;;5057658;28;20237;-59
2021/04/10 06:50:12;;;;;;;0.00;0.00;;;;;;;;;;5060406;28;20187;-59
2021/04/10 06:52:39;;;;;;;1.73;1.43;;;;;;;;;;5059144;28;20178;-59
2021/04/10 06:55:10;;;;;;;0.97;0.83;;;;;;;;;;5061911;28;20220;-59
2021/04/10 06:57:53;;;;;;;12.57;1.77;;;;;;;;;;5063654;28;20186;-59
2021/04/10 07:00:20;;;;;;;0.07;0.07;;;;;;;;;;5061489;28;20189;-59
2021/04/10 07:02:49;;;;;;;1.27;0.87;;;;;;;;;;5061439;28;20548;-60
2021/04/10 07:05:16;;;;;;;3.23;2.13;;;;;;;;;;5061603;28;20244;-59
2021/04/10 07:07:43;;;;;;;1.93;1.60;;;;;;;;;;5061007;28;20230;-59
2021/04/10 07:10:11;;;;;;;0.83;0.83;;;;;;;;;;5064830;28;20282;-60
2021/04/10 07:12:38;;;;;;;1.60;1.50;;;;;;;;;;5064387;28;20189;-60
2021/04/10 07:15:08;;;;;;;1.43;1.33;;;;;;;;;;5061954;28;20190;-60
2021/04/10 07:17:35;;;;;;;1.50;0.73;;;;;;;;;;5064609;28;20235;-59
2021/04/10 07:20:20;;;;;;;1.10;1.03;;;;;;;;;;5065805;28;20186;-59
2021/04/10 07:22:56;;;;;;;0.97;0.80;;;;;;;;;;5060743;28;20185;-60
2021/04/10 07:25:24;;;;;;;2.43;1.37;;;;;;;;;;5060856;28;20211;-60
2021/04/10 07:27:51;;;;;;;0.00;0.00;;;;;;;;;;5061577;28;20213;-59
2021/04/10 07:30:18;;;;;;;7.87;1.80;;;;;;;;;;5060488;28;20173;-60
2021/04/10 07:32:44;;;;;;;0.20;0.20;;;;;;;;;;5059976;28;20188;-59
2021/04/10 07:35:12;;;;;;;0.30;0.30;;;;;;;;;;5064086;28;20186;-60
2021/04/10 07:37:40;;;;;;;0.00;0.00;;;;;;;;;;5061368;28;20183;-60
2021/04/10 07:40:09;;;;;;;0.20;0.10;;;;;;;;;;5060627;28;20175;-60
2021/04/10 07:42:37;;;;;;;2.73;1.27;;;;;;;;;;5059977;28;20178;-59
2021/04/10 07:45:04;;;;;;;0.30;0.30;;;;;;;;;;5057139;28;20170;-59
2021/04/10 07:47:38;;;;;;;1.00;0.70;;;;;;;;;;5060225;28;20387;-59
2021/04/10 07:50:14;;;;;;;0.30;0.30;;;;;;;;;;5059832;28;20174;-60
2021/04/10 07:52:41;;;;;;;0.10;0.10;;;;;;;;;;5060315;28;20182;-59
2021/04/10 07:55:08;;;;;;;0.33;0.33;;;;;;;;;;5060083;28;20183;-59
2021/04/10 07:57:35;;;;;;;2.37;2.27;;;;;;;;;;5060419;28;20255;-59
2021/04/10 08:00:04;;;;;;;0.00;0.00;;;;;;;;;;5060189;28;20671;-59
2021/04/10 08:02:35;;;;;;;0.33;0.33;;;;;;;;;;5060339;28;20174;-59
2021/04/10 08:05:03;;;;;;;5.37;2.20;;;;;;;;;;5060333;28;20187;-60
2021/04/10 08:07:30;;;;;;;1.13;0.90;;;;;;;;;;5059591;28;20297;-59
2021/04/10 08:10:04;;;;;;;0.20;0.20;;;;;;;;;;5059781;28;20177;-59
2021/04/10 08:12:34;;;;;;;0.00;0.00;;;;;;;;;;5058777;28;20178;-59
2021/04/10 08:15:02;;;;;;;0.87;0.87;;;;;;;;;;5059802;28;20218;-60
2021/04/10 08:17:35;;;;;;;1.20;0.37;;;;;;;;;;5059459;28;20191;-60
2021/04/10 08:20:20;;;;;;;0.10;0.10;;;;;;;;;;5059156;28;20181;-60
2021/04/10 08:22:47;;;;;;;2.23;0.97;;;;;;;;;;5055998;28;20231;-59
2021/04/10 08:25:14;;;;;;;3.50;1.70;;;;;;;;;;5059617;28;20177;-59
2021/04/10 08:27:41;;;;;;;0.33;0.33;;;;;;;;;;5059198;28;20186;-60
2021/04/10 08:30:09;;;;;;;1.13;0.63;;;;;;;;;;5059898;28;20178;-59
2021/04/10 08:32:35;;;;;;;1.73;1.60;;;;;;;;;;5054428;28;20186;-60
2021/04/10 08:35:03;;;;;;;0.27;0.27;;;;;;;;;;5059722;28;20178;-59
2021/04/10 08:37:30;;;;;;;0.50;0.50;;;;;;;;;;5059287;28;20185;-59
2021/04/10 08:39:57;;;;;;;40.00;10.80;;;;;;;;;;5059363;28;20189;-59
2021/04/10 08:42:25;;;;;;;0.17;0.17;;;;;;;;;;5059503;28;20234;-59
2021/04/10 08:44:53;;;;;;;9.50;2.13;;;;;;;;;;5059075;28;20263;-59
2021/04/10 08:47:19;;;;;;;0.57;0.53;;;;;;;;;;5061374;28;20869;-59
2021/04/10 08:49:48;;;;;;;0.00;0.00;;;;;;;;;;5059079;28;20302;-59
2021/04/10 08:52:22;;;;;;;2.23;1.83;;;;;;;;;;5058422;28;20192;-59
2021/04/10 08:54:51;;;;;;;2.23;1.47;;;;;;;;;;5059276;28;20212;-59
2021/04/10 08:57:17;;;;;;;2.27;0.97;;;;;;;;;;5059351;28;20680;-59
2021/04/10 08:59:48;;;;;;;0.40;0.33;;;;;;;;;;5058008;28;20186;-59
2021/04/10 09:02:24;;;;;;;0.57;0.20;;;;;;;;;;5058437;28;20904;-59
2021/04/10 09:04:56;;;;;;;0.43;0.43;;;;;;;;;;5059300;28;20282;-59
2021/04/10 09:07:41;;;;;;;0.50;0.50;;;;;;;;;;5059051;28;20187;-59
2021/04/10 09:10:07;;;;;;;0.30;0.20;;;;;;;;;;5062393;28;20196;-60
2021/04/10 09:12:34;;;;;;;5.43;1.40;;;;;;;;;;5058926;28;20196;-59
2021/04/10 09:15:07;;;;;;;11.97;1.97;;;;;;;;;;5058825;28;20216;-59
2021/04/10 09:18:04;;;;;;;0.07;0.07;;;;;;;;;;5050745;28;20189;-60
2021/04/10 09:20:44;;;;;;;92.57;13.03;;;;;;;;;;5046772;28;20244;-59
2021/04/10 09:23:26;;;;;;;0.53;0.53;;;;;;;;;;5065466;28;20233;-59
2021/04/10 09:26:11;;;;;;;2.40;1.53;;;;;;;;;;5071743;28;20201;-59
2021/04/10 09:28:56;;;;;;;6.43;1.37;;;;;;;;;;5063348;28;20300;-59
2021/04/10 09:31:39;;;;;;;1.33;1.23;;;;;;;;;;5063365;28;20191;-60
2021/04/10 09:34:06;;;;;;;2.17;1.13;;;;;;;;;;5063606;28;20667;-59
2021/04/10 09:36:46;;;;;;;0.93;0.93;;;;;;;;;;5069114;28;20205;-59
2021/04/10 09:39:32;;;;;;;2.10;2.00;;;;;;;;;;5062992;28;20183;-59
2021/04/10 09:41:58;;;;;;;0.47;0.47;;;;;;;;;;5062992;28;20188;-59
2021/04/10 09:44:25;;;;;;;0.73;0.70;;;;;;;;;;5063257;28;20341;-59
2021/04/10 09:46:55;;;;;;;0.33;0.33;;;;;;;;;;5062876;28;20316;-59
2021/04/10 09:49:39;;;;;;;0.50;0.50;;;;;;;;;;5056030;28;20206;-59
2021/04/10 09:52:07;;;;;;;47.93;7.10;;;;;;;;;;5062089;28;20302;-59
2021/04/10 09:54:34;;;;;;;0.93;0.63;;;;;;;;;;5062670;28;20182;-59
2021/04/10 09:57:01;;;;;;;0.33;0.33;;;;;;;;;;5062998;28;20604;-59
2021/04/10 09:59:27;;;;;;;1.07;0.90;;;;;;;;;;5062953;28;20280;-59
2021/04/10 10:01:54;;;;;;;0.10;0.10;;;;;;;;;;5068239;28;20196;-59
2021/04/10 10:04:21;;;;;;;0.00;0.00;;;;;;;;;;5062195;28;20200;-59
2021/04/10 10:06:51;;;;;;;0.00;0.00;;;;;;;;;;5062560;28;20285;-59
2021/04/10 10:09:26;;;;;;;0.43;0.43;;;;;;;;;;5061934;28;20262;-59
2021/04/10 10:11:56;;;;;;;0.00;0.00;;;;;;;;;;5062354;28;20183;-59
2021/04/10 10:14:24;;;;;;;1.83;1.73;;;;;;;;;;5061203;28;20188;-59
2021/04/10 10:16:51;;;;;;;2.33;1.60;;;;;;;;;;5062242;28;20201;-59
2021/04/10 10:19:21;;;;;;;2.53;1.87;;;;;;;;;;5062718;28;20199;-59
2021/04/10 10:21:47;;;;;;;1.13;1.13;;;;;;;;;;5061751;28;20653;-59
2021/04/10 10:24:19;;;;;;;2.10;1.70;;;;;;;;;;5062259;28;20197;-59
2021/04/10 10:26:46;;;;;;;0.60;0.40;;;;;;;;;;5062285;28;20192;-59
2021/04/10 10:29:14;;;;;;;0.17;0.17;;;;;;;;;;5062193;28;20205;-59
2021/04/10 10:31:46;;;;;;;0.00;0.00;;;;;;;;;;5062112;28;20215;-59
2021/04/10 10:34:20;;;;;;;0.00;0.00;;;;;;;;;;5062401;28;20232;-59
2021/04/10 10:36:47;;;;;;;1.77;1.67;;;;;;;;;;5061503;28;20198;-59
2021/04/10 10:39:30;;;;;;;1.90;1.03;;;;;;;;;;5063054;28;20217;-59
2021/04/10 10:41:58;;;;;;;3.03;1.33;;;;;;;;;;5062035;28;20941;-59
2021/04/10 10:44:24;;;;;;;2.07;1.97;;;;;;;;;;5062200;28;20186;-59
2021/04/10 10:47:05;;;;;;;2.87;2.67;;;;;;;;;;5061494;28;20190;-60
2021/04/10 10:49:32;;;;;;;2.70;1.67;;;;;;;;;;5063185;28;20230;-59
2021/04/10 10:51:59;;;;;;;3.63;2.13;;;;;;;;;;5061483;28;20184;-59
2021/04/10 13:17:14;;;;;;;1.23;0.40;;;;;;;;;;5116421;27;20632;-61
2021/04/10 13:19:41;;;;;;;0.10;0.10;;;;;;;;;;5105220;28;20181;-60
2021/04/10 13:22:08;;;;;;;0.53;0.33;;;;;;;;;;5103853;28;20550;-58
2021/04/10 13:24:35;;;;;;;0.87;0.87;;;;;;;;;;5102124;28;20178;-59
2021/04/10 13:27:01;;;;;;;0.30;0.30;;;;;;;;;;5102838;28;20179;-59
2021/04/10 13:29:28;;;;;;;0.63;0.63;;;;;;;;;;5107175;28;20177;-59
2021/04/10 13:31:55;;;;;;;0.83;0.77;;;;;;;;;;5106113;28;20838;-59
2021/04/10 13:34:21;;;;;;;0.63;0.63;;;;;;;;;;5106728;28;20185;-59
2021/04/10 13:36:48;;;;;;;3.80;2.50;;;;;;;;;;5104359;28;20302;-58
2021/04/10 13:39:15;;;;;;;0.90;0.50;;;;;;;;;;5105785;27;20238;-59
2021/04/10 13:41:42;;;;;;;2.20;1.37;;;;;;;;;;5103146;27;20197;-59
2021/04/10 13:44:11;;;;;;;1.37;1.27;;;;;;;;;;5102962;28;20177;-60
2021/04/10 13:46:37;;;;;;;6.03;2.50;;;;;;;;;;5105278;27;20175;-59
2021/04/10 13:49:04;;;;;;;1.30;0.70;;;;;;;;;;5099751;28;20185;-60
2021/04/10 13:51:31;;;;;;;1.13;1.03;;;;;;;;;;5100246;28;20174;-60
2021/04/10 13:53:57;;;;;;;0.70;0.43;;;;;;;;;;5103145;28;20182;-59
2021/04/10 13:56:24;;;;;;;8.47;2.13;;;;;;;;;;5103799;27;20241;-58
2021/04/10 13:58:51;;;;;;;2.00;1.40;;;;;;;;;;5101241;27;20201;-59
2021/04/10 14:01:18;;;;;;;1.37;1.13;;;;;;;;;;5107934;28;20197;-60
2021/04/10 14:03:44;;;;;;;2.57;1.73;;;;;;;;;;5107326;28;20716;-59
2021/04/10 14:06:12;;;;;;;1.40;0.77;;;;;;;;;;5096683;27;20684;-60
2021/04/10 14:08:39;;;;;;;1.33;0.70;;;;;;;;;;5106654;28;20555;-59
2021/04/10 14:11:07;;;;;;;3.27;1.20;;;;;;;;;;5104218;27;20186;-59
2021/04/10 14:13:33;;;;;;;0.00;0.00;;;;;;;;;;5102357;28;20946;-59
2021/04/10 14:16:00;;;;;;;1.77;1.67;;;;;;;;;;5103721;28;20975;-59
2021/04/10 14:18:28;;;;;;;0.13;0.13;;;;;;;;;;5100469;27;20177;-59
2021/04/10 14:20:57;;;;;;;1.23;0.67;;;;;;;;;;5102630;28;20245;-59
2021/04/10 14:23:24;;;;;;;1.33;0.80;;;;;;;;;;5097087;28;20273;-59
2021/04/10 14:25:51;;;;;;;0.73;0.73;;;;;;;;;;5094683;28;20224;-61
2021/04/10 14:28:19;;;;;;;4.67;2.03;;;;;;;;;;5088254;28;20211;-60
2021/04/10 14:30:46;;;;;;;0.00;0.00;;;;;;;;;;5088135;28;20189;-60
2021/04/10 14:33:13;;;;;;;0.70;0.70;;;;;;;;;;5090893;28;20339;-61
2021/04/10 14:35:42;;;;;;;1.80;1.63;;;;;;;;;;5088382;28;20223;-59
2021/04/10 14:38:09;;;;;;;1.97;1.17;;;;;;;;;;5087056;28;20263;-60
2021/04/10 14:40:36;;;;;;;0.80;0.80;;;;;;;;;;5090314;28;20183;-59
2021/04/10 14:43:04;;;;;;;0.37;0.37;;;;;;;;;;5090382;28;20594;-58
2021/04/10 14:45:31;;;;;;;3.10;1.53;;;;;;;;;;5089242;28;20205;-59
2021/04/10 14:47:58;;;;;;;2.57;1.97;;;;;;;;;;5086440;28;20207;-57
2021/04/10 14:50:25;;;;;;;11.70;2.23;;;;;;;;;;5086289;28;20186;-59
2021/04/10 14:52:52;;;;;;;1.83;1.53;;;;;;;;;;5088426;28;20190;-59
2021/04/10 14:55:22;;;;;;;2.87;1.83;;;;;;;;;;5087061;28;20227;-58
2021/04/10 14:57:58;;;;;;;13.73;4.03;;;;;;;;;;5086556;28;20328;-61
2021/04/10 15:00:26;;;;;;;0.90;0.90;;;;;;;;;;5089033;28;20179;-61
2021/04/10 15:02:53;;;;;;;3.57;1.37;;;;;;;;;;5091835;28;20177;-61
2021/04/10 15:05:21;;;;;;;1.50;0.93;;;;;;;;;;5088223;28;20306;-62
2021/04/10 15:07:48;;;;;;;10.97;1.23;;;;;;;;;;5092522;28;20186;-62
2021/04/10 15:10:16;;;;;;;0.93;0.70;;;;;;;;;;5089595;28;20356;-60
2021/04/10 15:12:42;;;;;;;7.07;2.57;;;;;;;;;;5090455;28;20185;-60
2021/04/10 15:15:12;;;;;;;4.83;1.60;;;;;;;;;;5087701;28;20234;-60
2021/04/10 15:17:38;;;;;;;0.60;0.30;;;;;;;;;;5089467;28;20178;-59
2021/04/10 15:20:05;;;;;;;0.07;0.07;;;;;;;;;;5088497;28;20178;-59
2021/04/10 15:22:32;;;;;;;2.73;1.70;;;;;;;;;;5085907;28;20187;-61
2021/04/10 15:24:59;;;;;;;1.77;1.60;;;;;;;;;;5088071;28;20174;-62
2021/04/10 15:27:25;;;;;;;1.93;1.73;;;;;;;;;;5088934;28;20182;-60
2021/04/10 15:29:52;;;;;;;1.50;1.40;;;;;;;;;;5085811;28;20175;-59
2021/04/10 15:32:18;;;;;;;5.97;1.67;;;;;;;;;;5088220;28;20179;-59
2021/04/10 15:34:49;;;;;;;0.40;0.40;;;;;;;;;;5091855;28;20288;-59
2021/04/10 15:37:17;;;;;;;1.90;1.17;;;;;;;;;;5089610;28;20195;-59
2021/04/10 15:39:48;;;;;;;0.63;0.63;;;;;;;;;;5089728;28;20202;-58
2021/04/10 15:42:17;;;;;;;3.90;2.20;;;;;;;;;;5089535;28;20177;-59
2021/04/10 15:44:43;;;;;;;3.37;1.87;;;;;;;;;;5087085;28;20575;-59
2021/04/10 15:47:11;;;;;;;2.97;2.77;;;;;;;;;;5086882;28;20301;-59
2021/04/10 15:49:37;;;;;;;0.73;0.53;;;;;;;;;;5090123;28;20182;-60
2021/04/10 15:52:04;;;;;;;1.80;1.37;;;;;;;;;;5085745;28;20588;-58
2021/04/10 15:54:31;;;;;;;2.67;1.40;;;;;;;;;;5087078;28;20195;-58
2021/04/10 15:56:58;;;;;;;1.67;1.53;;;;;;;;;;5089778;28;20211;-59
2021/04/10 15:59:24;;;;;;;0.50;0.50;;;;;;;;;;5088758;28;20178;-58
2021/04/10 16:01:51;;;;;;;0.67;0.67;;;;;;;;;;5090836;28;20187;-58
2021/04/10 16:04:21;;;;;;;3.30;1.40;;;;;;;;;;5086230;28;20189;-58
2021/04/10 16:06:47;;;;;;;1.33;0.57;;;;;;;;;;5090406;28;20199;-60
2021/04/10 16:09:14;;;;;;;1.83;1.50;;;;;;;;;;5087463;28;20196;-59
2021/04/10 16:11:41;;;;;;;1.07;1.00;;;;;;;;;;5088404;28;20704;-60
2021/04/10 16:14:07;;;;;;;2.90;1.40;;;;;;;;;;5086108;28;21109;-59
2021/04/10 16:16:34;;;;;;;2.43;1.73;;;;;;;;;;5084694;28;20226;-60
2021/04/10 16:19:02;;;;;;;0.87;0.87;;;;;;;;;;5089035;28;20179;-60
2021/04/10 16:21:28;;;;;;;1.13;1.07;;;;;;;;;;5088609;28;20178;-60
2021/04/10 16:23:55;;;;;;;0.73;0.57;;;;;;;;;;5080741;28;20194;-59
2021/04/10 16:26:22;;;;;;;1.17;1.07;;;;;;;;;;5079590;28;20190;-60
2021/04/10 16:28:48;;;;;;;0.47;0.47;;;;;;;;;;5078737;28;20266;-60
2021/04/10 16:31:15;;;;;;;4.43;1.53;;;;;;;;;;5082311;28;20187;-59
2021/04/10 16:33:42;;;;;;;1.50;1.23;;;;;;;;;;5078325;28;20253;-60
2021/04/10 16:36:08;;;;;;;3.00;1.53;;;;;;;;;;5079461;28;20214;-60
2021/04/10 16:38:35;;;;;;;0.30;0.30;;;;;;;;;;5078309;28;20188;-60
2021/04/10 16:41:02;;;;;;;2.03;1.20;;;;;;;;;;5078646;28;20180;-60
2021/04/10 16:43:29;;;;;;;3.20;1.10;;;;;;;;;;5079444;28;21085;-60
2021/04/10 16:45:56;;;;;;;1.87;1.00;;;;;;;;;;5079125;28;20224;-59
2021/04/10 16:48:22;;;;;;;7.27;1.30;;;;;;;;;;5078980;28;20217;-60
2021/04/10 16:50:49;;;;;;;0.90;0.73;;;;;;;;;;5076728;28;20734;-60
2021/04/10 16:53:16;;;;;;;0.33;0.33;;;;;;;;;;5076868;28;20239;-60
2021/04/10 16:55:44;;;;;;;0.00;0.00;;;;;;;;;;5076139;28;20212;-62
2021/04/10 16:58:10;;;;;;;1.70;1.57;;;;;;;;;;5079916;28;20180;-59
2021/04/10 17:00:37;;;;;;;1.23;1.13;;;;;;;;;;5086869;28;20262;-59
2021/04/10 17:03:03;;;;;;;1.60;0.90;;;;;;;;;;5078756;28;20199;-59
2021/04/10 17:05:30;;;;;;;2.33;1.23;;;;;;;;;;5079127;28;20200;-59
2021/04/10 17:07:57;;;;;;;0.90;0.83;;;;;;;;;;5082929;28;20291;-59
2021/04/10 17:10:23;;;;;;;1.27;0.60;;;;;;;;;;5081279;28;20673;-59
2021/04/10 17:12:51;;;;;;;0.10;0.10;;;;;;;;;;5083067;28;20187;-60